^^
Grace C. Lehan Memorial Weather Station Historical Data
Daily Summary for July 11, 2021 Units:  English    Metric   Both
Daily Weekly Monthly Yearly
  High: Low: Average:
Temperature: 79.2 °F 55.3 °F 65.6 °F
Dew Point: 56.9 °F 47.4 °F 50.2 °F
Humidity: 86% 33% 61%
Wind Speed: 1.2mph 0mph 0.1mph
Wind Gust: 10mph - -
Wind- - SE
Pressure: 30.08 in 29.86 in -
Precipitation: 0.00 in    
 
 
Tabular Data for July 11, 2021
Time Temperature Dew Point Pressure Wind Wind Speed Wind Gust Humidity Rainfall Rate (Hourly) solar
00:09 60.2 °F 50.5 °F 30.08 in Calm   2 mph 70.2% 0.00 in 0 W/m2
00:14 60.2 °F 50.7 °F 30.08 in Calm   2 mph 71% 0.00 in 0 W/m2
00:19 60 °F 50.6 °F 30.08 in Calm   2 mph 71% 0.00 in 0 W/m2
00:24 60 °F 50.6 °F 30.08 in Calm   2 mph 71% 0.00 in 0 W/m2
00:29 59.9 °F 50.6 °F 30.08 in Calm   2 mph 71.4% 0.00 in 0 W/m2
00:34 59.8 °F 50.8 °F 30.08 in Calm   2 mph 72% 0.00 in 0 W/m2
00:39 59.7 °F 50.6 °F 30.08 in Calm     72% 0.00 in 0 W/m2
00:44 59.5 °F 50.6 °F 30.08 in Calm     72.2% 0.00 in 0 W/m2
00:49 59.5 °F 50.8 °F 30.08 in Calm     73% 0.00 in 0 W/m2
00:54 59.4 °F 50.8 °F 30.07 in Calm     73.1% 0.00 in 0 W/m2
00:59 59.3 °F 50.9 °F 30.07 in Calm     73.8% 0.00 in 0 W/m2
01:04 59.2 °F 50.9 °F 30.07 in Calm     74% 0.00 in 0 W/m2
01:09 59.1 °F 50.8 °F 30.07 in Calm     74% 0.00 in 0 W/m2
01:14 59 °F 51 °F 30.07 in Calm     74.7% 0.00 in 0 W/m2
01:19 58.9 °F 50.7 °F 30.07 in Calm     74.3% 0.00 in 0 W/m2
01:24 58.8 °F 50.9 °F 30.07 in Calm     75% 0.00 in 0 W/m2
01:29 58.7 °F 50.8 °F 30.07 in Calm     75% 0.00 in 0 W/m2
01:34 58.6 °F 50.7 °F 30.07 in Calm     75% 0.00 in 0 W/m2
01:39 58.5 °F 50.6 °F 30.07 in Calm     75% 0.00 in 0 W/m2
01:44 58.4 °F 50.7 °F 30.07 in Calm     75.4% 0.00 in 0 W/m2
01:49 58.3 °F 50.8 °F 30.07 in Calm     76% 0.00 in 0 W/m2
01:54 58.2 °F 50.7 °F 30.07 in Calm     76% 0.00 in 0 W/m2
01:59 58.1 °F 50.8 °F 30.07 in Calm     76.5% 0.00 in 0 W/m2
02:04 58 °F 50.8 °F 30.06 in Calm     77% 0.00 in 0 W/m2
02:09 57.9 °F 50.8 °F 30.06 in Calm     77% 0.00 in 0 W/m2
02:14 57.8 °F 50.6 °F 30.06 in Calm     77% 0.00 in 0 W/m2
02:19 57.7 °F 50.6 °F 30.06 in Calm     77.2% 0.00 in 0 W/m2
02:24 57.6 °F 50.8 °F 30.06 in Calm     78% 0.00 in 0 W/m2
02:29 57.5 °F 50.7 °F 30.06 in Calm     78% 0.00 in 0 W/m2
02:34 57.5 °F 50.7 °F 30.06 in Calm     78.2% 0.00 in 0 W/m2
02:39 57.4 °F 50.9 °F 30.06 in Calm     79% 0.00 in 0 W/m2
02:44 57.3 °F 51.1 °F 30.06 in Calm     79.8% 0.00 in 0 W/m2
02:49 57.3 °F 51.4 °F 30.06 in Calm     80.6% 0.00 in 0 W/m2
02:54 57.3 °F 51.5 °F 30.06 in Calm     81% 0.00 in 0 W/m2
02:59 57.3 °F 51.5 °F 30.06 in Calm     81% 0.00 in 0 W/m2
03:04 57.3 °F 51.5 °F 30.06 in Calm     81% 0.00 in 0 W/m2
03:09 57.3 °F 51.5 °F 30.06 in Calm     81% 0.00 in 0 W/m2
03:14 57.4 °F 51.6 °F 30.06 in Calm     81% 0.00 in 0 W/m2
03:19 57.4 °F 51.3 °F 30.05 in Calm     80% 0.00 in 0 W/m2
03:24 57.4 °F 51 °F 30.05 in Calm     79% 0.00 in 0 W/m2
03:29 57.5 °F 51.1 °F 30.05 in Calm     79% 0.00 in 0 W/m2
03:34 57.6 °F 51.1 °F 30.05 in Calm     79% 0.00 in 0 W/m2
03:39 57.6 °F 51.5 °F 30.05 in Calm     79.8% 0.00 in 0 W/m2
03:44 57.7 °F 51.5 °F 30.05 in Calm     79.9% 0.00 in 0 W/m2
03:49 57.7 °F 51.2 °F 30.05 in Calm     79% 0.00 in 0 W/m2
03:54 57.7 °F 51.2 °F 30.05 in Calm     79% 0.00 in 0 W/m2
03:59 57.7 °F 51.2 °F 30.05 in Calm     79% 0.00 in 0 W/m2
04:00 57.7 °F 51.2 °F 30.04 in Calm     79% 0.00 in 0 W/m2
04:09 57.5 °F 51.1 °F 30.05 in Calm     79% 0.00 in 0 W/m2
04:14 57.5 °F 51 °F 30.05 in Calm     79% 0.00 in 0 W/m2
04:19 57.3 °F 50.9 °F 30.06 in Calm     79% 0.00 in 0 W/m2
04:24 57.2 °F 50.8 °F 30.06 in Calm     79% 0.00 in 0 W/m2
04:29 57.1 °F 50.7 °F 30.06 in Calm     79% 0.00 in 0 W/m2
04:34 57 °F 50.5 °F 30.06 in Calm     79% 0.00 in 0 W/m2
04:39 56.8 °F 50.4 °F 30.06 in Calm     79% 0.00 in 0 W/m2
04:44 56.7 °F 50.3 °F 30.06 in Calm     79% 0.00 in 0 W/m2
04:49 56.6 °F 50.5 °F 30.06 in Calm     80% 0.00 in 0 W/m2
04:54 56.4 °F 50.3 °F 30.06 in Calm     80% 0.00 in 0 W/m2
04:59 56.3 °F 50.3 °F 30.06 in Calm     80% 0.00 in 0 W/m2
05:04 56.2 °F 50.3 °F 30.06 in Calm     80.4% 0.00 in 0 W/m2
05:09 56.2 °F 50.4 °F 30.06 in Calm     81% 0.00 in 0 W/m2
05:14 56 °F 50.3 °F 30.06 in Calm     81% 0.00 in 0 W/m2
05:19 55.9 °F 50.4 °F 30.06 in Calm     81.5% 0.00 in 0 W/m2
05:24 55.8 °F 50.4 °F 30.06 in Calm     82% 0.00 in 0 W/m2
05:29 55.7 °F 50.4 °F 30.05 in Calm     82.4% 0.00 in 0 W/m2
05:34 55.6 °F 50.6 °F 30.05 in Calm     83% 0.00 in 5 W/m2
05:39 55.5 °F 50.4 °F 30.05 in Calm     83% 0.00 in 7 W/m2
05:44 55.5 °F 50.5 °F 30.05 in Calm     83.2% 0.00 in 11 W/m2
05:49 55.4 °F 50.6 °F 30.05 in Calm     84% 0.00 in 14 W/m2
05:54 55.3 °F 50.6 °F 30.05 in Calm     84% 0.00 in 16 W/m2
05:59 55.3 °F 50.7 °F 30.04 in Calm     84.3% 0.00 in 18 W/m2
06:04 55.3 °F 50.9 °F 30.04 in Calm     85% 0.00 in 19 W/m2
06:09 55.4 °F 51 °F 30.04 in Calm     85.1% 0.00 in 21 W/m2
06:14 55.5 °F 51.4 °F 30.04 in Calm     86% 0.00 in 23 W/m2
06:19 55.6 °F 51.5 °F 30.05 in Calm     86% 0.00 in 25 W/m2
06:24 55.8 °F 51.7 °F 30.05 in Calm     86% 0.00 in 30 W/m2
06:29 56 °F 51.9 °F 30.05 in Calm     86% 0.00 in 39 W/m2
06:34 56.3 °F 52.1 °F 30.04 in Calm     86% 0.00 in 47 W/m2
06:39 56.6 °F 52.3 °F 30.04 in Calm     85.6% 0.00 in 53 W/m2
06:44 57 °F 52.3 °F 30.04 in Calm     84.2% 0.00 in 63 W/m2
06:49 57.8 °F 52.4 °F 30.04 in Calm     82.2% 0.00 in 69 W/m2
06:50 58.3 °F 52.5 °F 30.05 in Calm     81% 0.00 in 69 W/m2
07:00 60 °F 52.1 °F 30.04 in Calm   2 mph 75% 0.00 in 60 W/m2
07:30 63.9 °F 50.6 °F 30.04 in Calm   7 mph 62% 0.00 in 138 W/m2
08:04 66 °F 48.3 °F 30.04 in NE 0.9 mph 7 mph 52.7% 0.00 in 457 W/m2
08:09 66.3 °F 48.2 °F 30.03 in Calm   4 mph 52% 0.00 in 476 W/m2
08:14 66.4 °F 47.9 °F 30.03 in Calm   4 mph 51.3% 0.00 in 490 W/m2
08:19 66.6 °F 49.2 °F 30.03 in Calm   4 mph 53.6% 0.00 in 512 W/m2
08:24 66.9 °F 49.3 °F 30.03 in Calm   4 mph 53% 0.00 in 531 W/m2
08:29 67.4 °F 48.9 °F 30.02 in Calm   4 mph 51.5% 0.00 in 547 W/m2
08:34 67.7 °F 48.2 °F 30.02 in Calm   4 mph 49.7% 0.00 in 561 W/m2
08:39 68.1 °F 48.5 °F 30.02 in NE 0.8 mph 4 mph 49.5% 0.00 in 577 W/m2
08:44 68.5 °F 47.7 °F 30.02 in Calm   4 mph 47.3% 0.00 in 592 W/m2
08:49 68.7 °F 48.4 °F 30.02 in NE 0.6 mph 4 mph 48.2% 0.00 in 605 W/m2
08:54 69.4 °F 48.1 °F 30.02 in NE 0.5 mph 4 mph 46.7% 0.00 in 619 W/m2
08:59 69.9 °F 48.3 °F 30.02 in NE 0.1 mph 4 mph 46.2% 0.00 in 633 W/m2
09:04 70 °F 47.6 °F 30.02 in Calm   4 mph 44.8% 0.00 in 642 W/m2
09:09 69.9 °F 47.8 °F 30.02 in Calm     45.3% 0.00 in 657 W/m2
09:14 69.9 °F 48.8 °F 30.02 in Calm     47% 0.00 in 671 W/m2
09:19 70 °F 48.9 °F 30.02 in Calm     47% 0.00 in 689 W/m2
09:24 70.1 °F 48.4 °F 30.02 in Calm     46.1% 0.00 in 703 W/m2
09:29 70.2 °F 47.6 °F 30.01 in Calm   1 mph 44.5% 0.00 in 728 W/m2
09:34 70.3 °F 48 °F 30.01 in Calm   1 mph 45% 0.00 in 729 W/m2
09:39 70.8 °F 48.6 °F 30.01 in Calm     45.3% 0.00 in 745 W/m2
09:44 71 °F 47.9 °F 30.01 in Calm     43.9% 0.00 in 756 W/m2
09:49 71 °F 47.9 °F 30.01 in NE 0.6 mph 3 mph 43.8% 0.00 in 768 W/m2
09:54 71.6 °F 47.6 °F 30.01 in NE 0.5 mph 4 mph 42.4% 0.00 in 777 W/m2
09:59 71.9 °F 48.3 °F 30.01 in Calm   4 mph 43.1% 0.00 in 789 W/m2
10:04 72.2 °F 48.4 °F 30.00 in NE 0.5 mph 4 mph 42.9% 0.00 in 796 W/m2
10:09 72.7 °F 47.9 °F 30.00 in NE 0.4 mph 4 mph 41.4% 0.00 in 816 W/m2
10:14 73.2 °F 49.3 °F 30.00 in NE 0.6 mph 4 mph 42.8% 0.00 in 826 W/m2
10:19 73.6 °F 49.3 °F 30.00 in Calm   4 mph 42.4% 0.00 in 840 W/m2
10:24 73.5 °F 47.7 °F 30.00 in NE 0.1 mph 4 mph 40% 0.00 in 847 W/m2
10:29 73.3 °F 47.4 °F 30.00 in Calm   4 mph 39.7% 0.00 in 842 W/m2
10:34 73.4 °F 48.5 °F 30.00 in Calm   4 mph 41.3% 0.00 in 824 W/m2
10:39 73.3 °F 48.5 °F 30.00 in Calm   1 mph 41.4% 0.00 in 868 W/m2
10:44 73.4 °F 49.1 °F 29.99 in Calm   1 mph 42.3% 0.00 in 875 W/m2
10:47 73.3 °F 48.4 °F 29.99 in NE 0.2 mph 3 mph 41.3% 0.00 in 905 W/m2
11:00 73.6 °F 49.1 °F 29.98 in Calm   5 mph 42% 0.00 in 852 W/m2
11:30 74.9 °F 48.3 °F 29.99 in Calm   3 mph 39% 0.00 in 861 W/m2
12:04 76.4 °F 50.4 °F 29.99 in ENE 0.1 mph 3 mph 40.1% 0.00 in 967 W/m2
12:09 76.6 °F 50 °F 29.97 in ENE 0.5 mph 3 mph 39.3% 0.00 in 967 W/m2
12:14 76.6 °F 51.1 °F 29.97 in Calm   3 mph 41% 0.00 in 977 W/m2
12:19 76.4 °F 51.1 °F 29.97 in ENE 0.3 mph 3 mph 41.1% 0.00 in 974 W/m2
12:24 76.7 °F 51.6 °F 29.96 in ENE 0.4 mph 3 mph 41.6% 0.00 in 976 W/m2
12:29 77.2 °F 52.4 °F 29.96 in NE 0.4 mph 4 mph 42% 0.00 in 981 W/m2
12:34 77.6 °F 51.3 °F 29.96 in NE 0.1 mph 4 mph 39.9% 0.00 in 983 W/m2
12:39 77.8 °F 50.8 °F 29.96 in NNE 0.9 mph 5 mph 38.9% 0.00 in 972 W/m2
12:44 77.6 °F 49.5 °F 29.95 in WNW 0.2 mph 5 mph 37.3% 0.00 in 990 W/m2
12:49 77.3 °F 49.3 °F 29.95 in West 0.7 mph 5 mph 37.5% 0.00 in 993 W/m2
13:00 76.9 °F 50.1 °F 29.94 in Calm   5 mph 39% 0.00 in 973 W/m2
13:30 79.2 °F 50.7 °F 29.94 in WSW 1 mph 6 mph 37% 0.00 in 987 W/m2
14:00 78.3 °F 48.4 °F 29.92 in Calm   4 mph 35% 0.00 in 902 W/m2
14:30 78.5 °F 48.6 °F 29.91 in SW 1 mph 4 mph 35% 0.00 in 862 W/m2
15:00 79.2 °F 47.7 °F 29.91 in South 1 mph 6 mph 33% 0.00 in 867 W/m2
15:30 78.9 °F 47.4 °F 29.91 in South 1 mph 5 mph 33% 0.00 in 830 W/m2
16:04 78.3 °F 48.7 °F 29.90 in SSE 0.6 mph 2 mph 35.4% 0.00 in 719 W/m2
16:09 78.4 °F 49.1 °F 29.90 in SSE 0.4 mph 3 mph 35.8% 0.00 in 719 W/m2
16:14 78.4 °F 48.3 °F 29.90 in SSE 0.3 mph 3 mph 34.7% 0.00 in 316 W/m2
16:19 78.2 °F 47.4 °F 29.90 in SSE 0.4 mph 3 mph 33.8% 0.00 in 287 W/m2
16:24 77.7 °F 48.4 °F 29.90 in SSE 0.3 mph 4 mph 35.7% 0.00 in 253 W/m2
16:29 77.5 °F 49.2 °F 29.90 in SSE 0.2 mph 4 mph 37% 0.00 in 251 W/m2
16:34 77.5 °F 49 °F 29.90 in SSW 0.7 mph 6 mph 36.8% 0.00 in 236 W/m2
16:39 77.4 °F 49.6 °F 29.90 in WSW 0.3 mph 6 mph 37.7% 0.00 in 236 W/m2
16:44 77.3 °F 49.9 °F 29.89 in SW 0.4 mph 6 mph 38.1% 0.00 in 248 W/m2
16:49 77.5 °F 49.5 °F 29.89 in WSW 0.2 mph 6 mph 37.5% 0.00 in 178 W/m2
16:54 77.4 °F 49.6 °F 29.89 in SW 1.2 mph 10 mph 37.6% 0.00 in 153 W/m2
16:59 77.4 °F 49.8 °F 29.89 in WSW 0.7 mph 10 mph 37.9% 0.00 in 162 W/m2
17:04 77.3 °F 48.6 °F 29.89 in SSE 0.7 mph 10 mph 36.4% 0.00 in 165 W/m2
17:09 77 °F 48.8 °F 29.89 in SSE 0.1 mph 4 mph 37.1% 0.00 in 153 W/m2
17:14 76.9 °F 49.2 °F 29.89 in SSW 0.5 mph 8 mph 37.9% 0.00 in 144 W/m2
17:19 76.6 °F 48.9 °F 29.89 in WSW 0.2 mph 8 mph 37.7% 0.00 in 135 W/m2
17:24 76.3 °F 49.1 °F 29.88 in Calm   8 mph 38.3% 0.00 in 128 W/m2
17:29 76 °F 50.4 °F 29.88 in WSW 0.1 mph 8 mph 40.6% 0.00 in 142 W/m2
17:34 75.7 °F 50 °F 29.88 in Calm   8 mph 40.6% 0.00 in 144 W/m2
17:39 75.4 °F 50.3 °F 29.88 in SW 0.2 mph 3 mph 41.5% 0.00 in 114 W/m2
17:43 75.1 °F 49.1 °F 29.88 in South 0.4 mph 3 mph 40% 0.00 in 100 W/m2
18:00 74 °F 50.1 °F 29.87 in Calm   3 mph 43% 0.00 in 101 W/m2
18:30 73 °F 50.4 °F 29.86 in Calm   4 mph 45% 0.00 in 74 W/m2
19:00 72 °F 51.3 °F 29.87 in Calm   4 mph 48% 0.00 in 62 W/m2
19:30 71.1 °F 51.5 °F 29.87 in Calm   4 mph 50% 0.00 in 40 W/m2
20:04 69.5 °F 50.4 °F 29.87 in South 0.9 mph 4 mph 50.7% 0.00 in 40 W/m2
20:09 69.2 °F 50.2 °F 29.87 in South 0.3 mph 3 mph 50.8% 0.00 in 5 W/m2
20:14 69 °F 49.9 °F 29.87 in South 0.1 mph 3 mph 50.5% 0.00 in 5 W/m2
20:19 68.8 °F 49.1 °F 29.87 in South 0.1 mph 3 mph 49.4% 0.00 in 0 W/m2
20:24 68.6 °F 48.9 °F 29.88 in South 0.1 mph 3 mph 49.4% 0.00 in 0 W/m2
20:29 68.4 °F 49.3 °F 29.87 in Calm   3 mph 50.4% 0.00 in 0 W/m2
20:34 68.2 °F 49.4 °F 29.87 in South 0.1 mph 3 mph 51% 0.00 in 0 W/m2
20:39 68.1 °F 49.7 °F 29.87 in Calm   2 mph 51.9% 0.00 in 0 W/m2
20:43 67.9 °F 49.9 °F 29.87 in Calm   2 mph 52.5% 0.00 in 0 W/m2
21:00 67.4 °F 52.1 °F 29.86 in Calm   2 mph 58% 0.00 in 0 W/m2
21:30 66.5 °F 54.8 °F 29.88 in Calm   2 mph 66% 0.00 in 0 W/m2
22:00 65.8 °F 56.5 °F 29.88 in Calm   2 mph 72% 0.00 in 0 W/m2
22:30 65 °F 56.5 °F 29.89 in Calm     74% 0.00 in 0 W/m2
23:00 64.6 °F 56.9 °F 29.88 in Calm     76% 0.00 in 0 W/m2
23:30 64.2 °F 56.8 °F 29.88 in Calm     77% 0.00 in 0 W/m2
Hartford County Weather
Compliments of Weather Underground - 2 mb